createdAt,value
2017-06-30T00:00:12.310Z,19.57
2017-06-30T00:00:40.374Z,19.62
2017-06-30T00:01:08.528Z,19.56
2017-06-30T00:01:36.555Z,19.55
2017-06-30T00:02:04.840Z,19.55
2017-06-30T00:02:32.966Z,19.56
2017-06-30T00:03:01.096Z,19.55
2017-06-30T00:03:29.254Z,19.55
2017-06-30T00:03:57.389Z,19.56
2017-06-30T00:04:25.555Z,19.62
2017-06-30T00:04:53.738Z,19.53
2017-06-30T00:05:21.895Z,19.55
2017-06-30T00:05:50.272Z,19.49
2017-06-30T00:06:18.402Z,19.48
2017-06-30T00:06:46.554Z,19.48
2017-06-30T00:07:14.708Z,19.44
2017-06-30T00:07:42.669Z,19.45
2017-06-30T00:08:10.785Z,19.44
2017-06-30T00:08:38.912Z,19.47
2017-06-30T00:09:07.051Z,19.47
2017-06-30T00:09:35.127Z,19.44
2017-06-30T00:10:03.298Z,19.39
2017-06-30T00:10:31.433Z,19.44
2017-06-30T00:10:59.588Z,19.35
2017-06-30T00:11:28.073Z,19.38
2017-06-30T00:11:56.210Z,19.32
2017-06-30T00:12:24.239Z,19.39
2017-06-30T00:12:52.409Z,19.27
2017-06-30T00:13:20.576Z,19.26
2017-06-30T00:13:48.754Z,19.24
2017-06-30T00:14:16.889Z,19.29
2017-06-30T00:14:45.038Z,19.24
2017-06-30T00:15:13.221Z,19.26
2017-06-30T00:15:41.382Z,19.19
2017-06-30T00:16:09.390Z,19.2
2017-06-30T00:16:37.551Z,19.23
2017-06-30T00:17:05.704Z,19.19
2017-06-30T00:17:33.844Z,19.11
2017-06-30T00:18:01.975Z,19.2
2017-06-30T00:18:30.109Z,19.09
2017-06-30T00:18:58.273Z,19.16
2017-06-30T00:19:26.540Z,19.19
2017-06-30T00:19:54.689Z,19.08
2017-06-30T00:20:22.628Z,19.11
2017-06-30T00:20:50.959Z,19.08
2017-06-30T00:21:19.015Z,19.09
2017-06-30T00:21:46.964Z,19.05
2017-06-30T00:22:14.922Z,19
2017-06-30T00:22:43.303Z,19.08
2017-06-30T00:23:11.457Z,19.08
2017-06-30T00:23:39.426Z,19.01
2017-06-30T00:24:07.461Z,19.04
2017-06-30T00:24:35.611Z,19.07
2017-06-30T00:25:03.788Z,19.07
2017-06-30T00:25:31.833Z,19.01
2017-06-30T00:25:59.862Z,19
2017-06-30T00:26:27.995Z,18.98
2017-06-30T00:26:56.133Z,18.98
2017-06-30T00:27:24.267Z,18.98
2017-06-30T00:27:52.386Z,19.05
2017-06-30T00:28:20.537Z,19.08
2017-06-30T00:28:48.681Z,18.98
2017-06-30T00:29:16.811Z,19.04
2017-06-30T00:29:44.846Z,19
2017-06-30T00:30:12.993Z,19.01
2017-06-30T00:30:41.018Z,18.97
2017-06-30T00:31:09.188Z,19
2017-06-30T00:31:37.363Z,19.01
2017-06-30T00:32:05.401Z,18.97
2017-06-30T00:32:33.515Z,19
2017-06-30T00:33:01.648Z,18.98
2017-06-30T00:33:29.789Z,19.07
2017-06-30T00:33:57.836Z,18.97
2017-06-30T00:34:25.979Z,18.92
2017-06-30T00:34:54.204Z,18.88
2017-06-30T00:35:22.335Z,18.88
2017-06-30T00:35:50.478Z,18.86
2017-06-30T00:36:18.637Z,18.96
2017-06-30T00:36:46.791Z,18.89
2017-06-30T00:37:14.759Z,18.88
2017-06-30T00:37:42.914Z,18.88
2017-06-30T00:38:11.048Z,18.88
2017-06-30T00:38:39.402Z,18.82
2017-06-30T00:39:07.466Z,18.85
2017-06-30T00:39:35.609Z,18.83
2017-06-30T00:40:03.756Z,18.83
2017-06-30T00:40:31.797Z,18.83
2017-06-30T00:40:59.947Z,18.85
2017-06-30T00:41:28.016Z,18.85
2017-06-30T00:41:56.159Z,18.81
2017-06-30T00:42:24.188Z,18.83
2017-06-30T00:42:52.329Z,18.79
2017-06-30T00:43:20.503Z,18.71
2017-06-30T00:43:48.637Z,18.73
2017-06-30T00:44:16.665Z,18.67
2017-06-30T00:44:44.813Z,18.74
2017-06-30T00:45:12.904Z,18.7
2017-06-30T00:45:41.067Z,18.71
2017-06-30T00:46:09.397Z,18.73
2017-06-30T00:46:37.342Z,18.67
2017-06-30T00:47:05.517Z,18.71
2017-06-30T00:47:33.616Z,18.71
2017-06-30T00:48:01.731Z,18.79
2017-06-30T00:48:29.779Z,18.71
2017-06-30T00:48:57.893Z,18.67
2017-06-30T00:49:25.986Z,18.74
2017-06-30T00:49:54.109Z,18.71
2017-06-30T00:50:22.236Z,18.68
2017-06-30T00:50:50.381Z,18.67
2017-06-30T00:51:18.539Z,18.82
2017-06-30T00:51:46.676Z,18.71
2017-06-30T00:52:14.746Z,18.73
2017-06-30T00:52:42.885Z,18.76
2017-06-30T00:53:10.915Z,18.7
2017-06-30T00:53:39.066Z,18.67
2017-06-30T00:54:07.213Z,18.73
2017-06-30T00:54:35.172Z,18.74
2017-06-30T00:55:03.326Z,18.68
2017-06-30T00:55:31.400Z,18.68
2017-06-30T00:55:59.539Z,18.73
2017-06-30T00:56:27.663Z,18.71
2017-06-30T00:56:55.798Z,18.64
2017-06-30T00:57:23.929Z,18.64
2017-06-30T00:57:52.070Z,18.61
2017-06-30T00:58:20.218Z,18.58
2017-06-30T00:58:48.361Z,18.64
2017-06-30T00:59:16.504Z,18.55
2017-06-30T00:59:44.633Z,18.52
2017-06-30T01:00:12.665Z,18.52
2017-06-30T01:00:40.790Z,18.53
2017-06-30T01:01:08.796Z,18.53
2017-06-30T01:01:36.930Z,18.53
2017-06-30T01:02:04.929Z,18.49
2017-06-30T01:02:33.091Z,18.55
2017-06-30T01:03:01.210Z,18.53
2017-06-30T01:03:29.347Z,18.55
2017-06-30T01:03:57.500Z,18.57
2017-06-30T01:04:25.551Z,18.53
2017-06-30T01:04:53.687Z,18.6
2017-06-30T01:05:21.734Z,18.58
2017-06-30T01:05:49.760Z,18.6
2017-06-30T01:06:17.910Z,18.61
2017-06-30T01:06:46.062Z,18.58
2017-06-30T01:07:14.185Z,18.6
2017-06-30T01:07:42.312Z,18.57
2017-06-30T01:08:10.468Z,18.49
2017-06-30T01:08:38.506Z,18.52
2017-06-30T01:09:06.557Z,18.55
2017-06-30T01:09:34.648Z,18.46
2017-06-30T01:10:02.684Z,18.46
2017-06-30T01:10:30.749Z,18.42
2017-06-30T01:10:58.871Z,18.45
2017-06-30T01:11:27.007Z,18.42
2017-06-30T01:11:55.059Z,18.42
2017-06-30T01:12:23.214Z,18.36
2017-06-30T01:12:51.254Z,18.41
2017-06-30T01:13:19.425Z,18.36
2017-06-30T01:13:47.474Z,18.42
2017-06-30T01:14:15.587Z,18.41
2017-06-30T01:14:43.706Z,18.41
2017-06-30T01:15:11.871Z,18.36
2017-06-30T01:15:40.031Z,18.36
2017-06-30T01:16:08.076Z,18.31
2017-06-30T01:16:36.121Z,18.31
2017-06-30T01:17:04.275Z,18.37
2017-06-30T01:17:32.310Z,18.3
2017-06-30T01:18:00.457Z,18.36
2017-06-30T01:18:28.591Z,18.31
2017-06-30T01:18:56.717Z,18.26
2017-06-30T01:19:24.868Z,18.24
2017-06-30T01:19:52.996Z,18.21
2017-06-30T01:20:21.123Z,18.23
2017-06-30T01:20:49.254Z,18.23
2017-06-30T01:21:17.385Z,18.23
2017-06-30T01:21:45.496Z,18.36
2017-06-30T01:22:13.636Z,18.28
2017-06-30T01:22:41.663Z,18.39
2017-06-30T01:23:09.801Z,18.26
2017-06-30T01:23:37.944Z,18.27
2017-06-30T01:24:06.104Z,18.18
2017-06-30T01:24:34.227Z,18.23
2017-06-30T01:25:02.353Z,18.26
2017-06-30T01:25:30.400Z,18.28
2017-06-30T01:25:58.547Z,18.41
2017-06-30T01:26:26.716Z,18.31
2017-06-30T01:26:54.848Z,18.28
2017-06-30T01:27:22.969Z,18.37
2017-06-30T01:27:51.007Z,18.42
2017-06-30T01:28:19.130Z,18.37
2017-06-30T01:28:47.257Z,18.41
2017-06-30T01:29:15.393Z,18.39
2017-06-30T01:29:43.527Z,18.41
2017-06-30T01:30:11.669Z,18.39
2017-06-30T01:30:39.815Z,18.39
2017-06-30T01:31:07.931Z,18.39
2017-06-30T01:31:36.097Z,18.41
2017-06-30T01:32:04.162Z,18.36
2017-06-30T01:32:32.296Z,18.24
2017-06-30T01:33:00.429Z,18.23
2017-06-30T01:33:28.569Z,18.23
2017-06-30T01:33:56.607Z,18.19
2017-06-30T01:34:24.652Z,18.19
2017-06-30T01:34:52.807Z,18.23
2017-06-30T01:35:20.868Z,18.13
2017-06-30T01:35:48.996Z,18.26
2017-06-30T01:36:17.127Z,18.15
2017-06-30T01:36:45.276Z,18.11
2017-06-30T01:37:13.425Z,18.12
2017-06-30T01:37:41.564Z,18.21
2017-06-30T01:38:09.573Z,18.21
2017-06-30T01:38:37.726Z,18.24
2017-06-30T01:39:05.844Z,18.21
2017-06-30T01:39:33.970Z,18.16
2017-06-30T01:40:02.111Z,18.23
2017-06-30T01:40:30.133Z,18.24
2017-06-30T01:40:58.255Z,18.19
2017-06-30T01:41:26.406Z,18.36
2017-06-30T01:41:54.530Z,18.39
2017-06-30T01:42:22.542Z,18.28
2017-06-30T01:42:50.605Z,18.34
2017-06-30T01:43:18.656Z,18.33
2017-06-30T01:43:46.810Z,18.45
2017-06-30T01:44:14.969Z,18.42
2017-06-30T01:44:43.113Z,18.34
2017-06-30T01:45:11.274Z,18.39
2017-06-30T01:45:39.420Z,18.43
2017-06-30T01:46:07.574Z,18.37
2017-06-30T01:46:35.728Z,18.41
2017-06-30T01:47:03.794Z,18.43
2017-06-30T01:47:31.945Z,18.33
2017-06-30T01:48:00.080Z,18.46
2017-06-30T01:48:28.212Z,18.36
2017-06-30T01:48:56.317Z,18.39
2017-06-30T01:49:24.478Z,18.41
2017-06-30T01:49:52.622Z,18.36
2017-06-30T01:50:20.639Z,18.37
2017-06-30T01:50:48.769Z,18.34
2017-06-30T01:51:16.904Z,18.36
2017-06-30T01:51:45.058Z,18.39
2017-06-30T01:52:13.179Z,18.39
2017-06-30T01:52:41.314Z,18.39
2017-06-30T01:53:09.462Z,18.45
2017-06-30T01:53:37.582Z,18.42
2017-06-30T01:54:05.729Z,18.41
2017-06-30T01:54:33.859Z,18.42
2017-06-30T01:55:01.989Z,18.36
2017-06-30T01:55:30.103Z,18.28
2017-06-30T01:55:58.262Z,18.34
2017-06-30T01:56:26.414Z,18.36
2017-06-30T01:56:54.557Z,18.36
2017-06-30T01:57:22.714Z,18.3
2017-06-30T01:57:50.806Z,18.28
2017-06-30T01:58:18.870Z,18.31
2017-06-30T01:58:47.038Z,18.18
2017-06-30T01:59:15.171Z,18.26
2017-06-30T01:59:43.204Z,18.23
2017-06-30T02:00:11.251Z,18.16
2017-06-30T02:00:39.392Z,18.08
2017-06-30T02:01:07.343Z,18.08
2017-06-30T02:01:35.472Z,18.12
2017-06-30T02:02:03.603Z,18.05
2017-06-30T02:02:31.746Z,17.98
2017-06-30T02:02:59.894Z,17.97
2017-06-30T02:03:28.025Z,17.95
2017-06-30T02:03:56.166Z,17.97
2017-06-30T02:04:24.310Z,17.94
2017-06-30T02:04:52.335Z,17.91
2017-06-30T02:05:20.485Z,17.97
2017-06-30T02:05:48.635Z,17.94
2017-06-30T02:06:16.758Z,17.93
2017-06-30T02:06:44.877Z,17.94
2017-06-30T02:07:12.901Z,17.91
2017-06-30T02:07:40.968Z,17.9
2017-06-30T02:08:09.105Z,17.94
2017-06-30T02:08:37.250Z,17.9
2017-06-30T02:09:05.381Z,17.9
2017-06-30T02:09:33.541Z,17.91
2017-06-30T02:10:01.599Z,17.82
2017-06-30T02:10:29.716Z,17.86
2017-06-30T02:10:57.869Z,17.86
2017-06-30T02:11:25.801Z,17.88
2017-06-30T02:11:53.948Z,17.82
2017-06-30T02:12:22.226Z,17.84
2017-06-30T02:12:50.351Z,17.78
2017-06-30T02:13:18.651Z,17.8
2017-06-30T02:13:46.781Z,17.75
2017-06-30T02:14:14.924Z,17.73
2017-06-30T02:14:43.059Z,17.75
2017-06-30T02:15:11.195Z,17.79
2017-06-30T02:15:39.326Z,17.73
2017-06-30T02:16:07.452Z,17.8
2017-06-30T02:16:35.406Z,17.73
2017-06-30T02:17:03.566Z,17.72
2017-06-30T02:17:31.720Z,17.68
2017-06-30T02:17:59.826Z,17.63
2017-06-30T02:18:27.932Z,17.6
2017-06-30T02:18:56.075Z,17.56
2017-06-30T02:19:24.194Z,17.57
2017-06-30T02:19:52.360Z,17.63
2017-06-30T02:20:20.429Z,17.66
2017-06-30T02:20:48.543Z,17.56
2017-06-30T02:21:16.670Z,17.56
2017-06-30T02:21:44.840Z,17.52
2017-06-30T02:22:12.974Z,17.59
2017-06-30T02:22:41.115Z,17.44
2017-06-30T02:23:09.263Z,17.49
2017-06-30T02:23:37.384Z,17.47
2017-06-30T02:24:05.545Z,17.41
2017-06-30T02:24:33.658Z,17.44
2017-06-30T02:25:01.791Z,17.47
2017-06-30T02:25:29.945Z,17.34
2017-06-30T02:25:58.082Z,17.34
2017-06-30T02:26:26.221Z,17.37
2017-06-30T02:26:54.390Z,17.35
2017-06-30T02:27:22.404Z,17.32
2017-06-30T02:27:50.445Z,17.32
2017-06-30T02:28:18.581Z,17.37
2017-06-30T02:28:46.866Z,17.37
2017-06-30T02:29:15.033Z,17.27
2017-06-30T02:29:43.168Z,17.34
2017-06-30T02:30:11.312Z,17.37
2017-06-30T02:30:39.372Z,17.28
2017-06-30T02:31:07.497Z,17.28
2017-06-30T02:31:35.648Z,17.24
2017-06-30T02:32:03.783Z,17.27
2017-06-30T02:32:31.934Z,17.22
2017-06-30T02:33:00.065Z,17.2
2017-06-30T02:33:28.091Z,17.2
2017-06-30T02:33:56.122Z,17.17
2017-06-30T02:34:24.263Z,17.16
2017-06-30T02:34:52.377Z,17.16
2017-06-30T02:35:20.418Z,17.13
2017-06-30T02:35:48.547Z,17.14
2017-06-30T02:36:16.673Z,17.1
2017-06-30T02:36:44.709Z,17.16
2017-06-30T02:37:12.756Z,17.16
2017-06-30T02:37:40.908Z,17.13
2017-06-30T02:38:09.030Z,17.22
2017-06-30T02:38:37.170Z,17.22
2017-06-30T02:39:05.299Z,17.23
2017-06-30T02:39:33.636Z,17.17
2017-06-30T02:40:01.763Z,17.19
2017-06-30T02:40:29.877Z,17.19
2017-06-30T02:40:58.029Z,17.19
2017-06-30T02:41:26.187Z,17.23
2017-06-30T02:41:54.333Z,17.22
2017-06-30T02:42:22.470Z,17.17
2017-06-30T02:42:50.614Z,17.2
2017-06-30T02:43:18.743Z,17.22
2017-06-30T02:43:46.866Z,17.19
2017-06-30T02:44:14.888Z,17.22
2017-06-30T02:44:42.914Z,17.2
2017-06-30T02:45:11.044Z,17.17
2017-06-30T02:45:39.158Z,17.23
2017-06-30T02:46:07.291Z,17.22
2017-06-30T02:46:35.451Z,17.17
2017-06-30T02:47:03.579Z,17.24
2017-06-30T02:47:31.728Z,17.19
2017-06-30T02:47:59.871Z,17.2
2017-06-30T02:48:28.027Z,17.13
2017-06-30T02:48:56.065Z,17.17
2017-06-30T02:49:24.151Z,17.05
2017-06-30T02:49:52.177Z,17.16
2017-06-30T02:50:20.295Z,17.07
2017-06-30T02:50:48.583Z,17.07
2017-06-30T02:51:16.634Z,17.04
2017-06-30T02:51:44.773Z,17.04
2017-06-30T02:52:12.920Z,16.98
2017-06-30T02:52:41.072Z,17.07
2017-06-30T02:53:09.218Z,17.07
2017-06-30T02:53:37.262Z,16.98
2017-06-30T02:54:05.407Z,17.02
2017-06-30T02:54:33.558Z,17.1
2017-06-30T02:55:01.698Z,17.02
2017-06-30T02:55:29.741Z,17.01
2017-06-30T02:55:57.895Z,17.05
2017-06-30T02:56:26.053Z,17.19
2017-06-30T02:56:54.165Z,17.1
2017-06-30T02:57:22.286Z,17.04
2017-06-30T02:57:50.418Z,17.04
2017-06-30T02:58:18.540Z,17.05
2017-06-30T02:58:46.666Z,17.05
2017-06-30T02:59:14.801Z,17.13
2017-06-30T02:59:42.960Z,17.13
2017-06-30T03:00:11.094Z,17.1
2017-06-30T03:00:39.244Z,17.16
2017-06-30T03:01:07.362Z,17.1
2017-06-30T03:01:35.510Z,17.16
2017-06-30T03:02:03.656Z,17.1
2017-06-30T03:02:31.759Z,17.14
2017-06-30T03:02:59.880Z,17.19
2017-06-30T03:03:27.932Z,17.17
2017-06-30T03:03:56.072Z,17.07
2017-06-30T03:04:24.197Z,17.16
2017-06-30T03:04:52.360Z,17.16
2017-06-30T03:05:20.490Z,17.16
2017-06-30T03:05:48.628Z,17.13
2017-06-30T03:06:16.646Z,17.16
2017-06-30T03:06:44.787Z,17.16
2017-06-30T03:07:12.947Z,17.16
2017-06-30T03:07:40.977Z,17.14
2017-06-30T03:08:09.094Z,17.16
2017-06-30T03:08:37.250Z,17.16
2017-06-30T03:09:05.380Z,17.16
2017-06-30T03:09:33.528Z,17.13
2017-06-30T03:10:01.658Z,17.17
2017-06-30T03:10:29.786Z,17.16
2017-06-30T03:10:57.922Z,17.19
2017-06-30T03:11:26.086Z,17.13
2017-06-30T03:11:54.224Z,17.12
2017-06-30T03:12:22.354Z,17.14
2017-06-30T03:12:50.491Z,17.16
2017-06-30T03:13:18.633Z,17.13
2017-06-30T03:13:46.766Z,17.12
2017-06-30T03:14:14.895Z,17.07
2017-06-30T03:14:43.045Z,17.14
2017-06-30T03:15:11.166Z,17.23
2017-06-30T03:15:39.288Z,17.2
2017-06-30T03:16:07.455Z,17.24
2017-06-30T03:16:35.579Z,17.19
2017-06-30T03:17:03.719Z,17.17
2017-06-30T03:17:31.855Z,17.17
2017-06-30T03:17:59.910Z,17.17
2017-06-30T03:18:27.862Z,17.13
2017-06-30T03:18:55.988Z,17.1
2017-06-30T03:19:24.122Z,17.22
2017-06-30T03:19:52.247Z,17.14
2017-06-30T03:20:20.393Z,17.14
2017-06-30T03:20:48.546Z,17.12
2017-06-30T03:21:16.598Z,17.17
2017-06-30T03:21:44.713Z,17.16
2017-06-30T03:22:12.829Z,17.14
2017-06-30T03:22:40.942Z,17.19
2017-06-30T03:23:09.074Z,17.19
2017-06-30T03:23:37.233Z,17.23
2017-06-30T03:24:05.371Z,17.22
2017-06-30T03:24:33.499Z,17.2
2017-06-30T03:25:01.535Z,17.19
2017-06-30T03:25:29.694Z,17.22
2017-06-30T03:25:57.858Z,17.19
2017-06-30T03:26:26.012Z,17.24
2017-06-30T03:26:54.169Z,17.24
2017-06-30T03:27:22.214Z,17.2
2017-06-30T03:27:50.372Z,17.23
2017-06-30T03:28:18.526Z,17.22
2017-06-30T03:28:46.669Z,17.24
2017-06-30T03:29:14.821Z,17.3
2017-06-30T03:29:42.871Z,17.24
2017-06-30T03:30:10.987Z,17.24
2017-06-30T03:30:39.123Z,17.24
2017-06-30T03:31:07.165Z,17.3
2017-06-30T03:31:35.301Z,17.27
2017-06-30T03:32:03.424Z,17.28
2017-06-30T03:32:31.573Z,17.24
2017-06-30T03:32:59.650Z,17.34
2017-06-30T03:33:27.785Z,17.34
2017-06-30T03:33:55.942Z,17.31
2017-06-30T03:34:23.982Z,17.34
2017-06-30T03:34:52.134Z,17.38
2017-06-30T03:35:20.301Z,17.34
2017-06-30T03:35:48.450Z,17.35
2017-06-30T03:36:16.581Z,17.37
2017-06-30T03:36:44.633Z,17.39
2017-06-30T03:37:12.670Z,17.47
2017-06-30T03:37:40.718Z,17.5
2017-06-30T03:38:08.871Z,17.42
2017-06-30T03:38:36.934Z,17.41
2017-06-30T03:39:05.061Z,17.47
2017-06-30T03:39:33.235Z,17.54
2017-06-30T03:40:01.375Z,17.52
2017-06-30T03:40:29.504Z,17.52
2017-06-30T03:40:57.539Z,17.59
2017-06-30T03:41:25.671Z,17.68
2017-06-30T03:41:53.782Z,17.66
2017-06-30T03:42:21.912Z,17.63
2017-06-30T03:42:50.051Z,17.63
2017-06-30T03:43:18.179Z,17.56
2017-06-30T03:43:46.324Z,17.54
2017-06-30T03:44:14.435Z,17.69
2017-06-30T03:44:42.583Z,17.56
2017-06-30T03:45:10.758Z,17.56
2017-06-30T03:45:38.715Z,17.56
2017-06-30T03:46:06.839Z,17.59
2017-06-30T03:46:35.000Z,17.57
2017-06-30T03:47:03.029Z,17.53
2017-06-30T03:47:31.154Z,17.44
2017-06-30T03:47:59.268Z,17.44
2017-06-30T03:48:27.319Z,17.41
2017-06-30T03:48:55.469Z,17.35
2017-06-30T03:49:23.598Z,17.34
2017-06-30T03:49:51.627Z,17.27
2017-06-30T03:50:19.663Z,17.23
2017-06-30T03:50:47.712Z,17.19
2017-06-30T03:51:15.849Z,17.16
2017-06-30T03:51:43.987Z,17.17
2017-06-30T03:52:12.108Z,17.1
2017-06-30T03:52:40.243Z,17.1
2017-06-30T03:53:08.395Z,17.13
2017-06-30T03:53:36.509Z,17.16
2017-06-30T03:54:04.482Z,17.07
2017-06-30T03:54:32.606Z,17.16
2017-06-30T03:55:00.748Z,17.14
2017-06-30T03:55:28.881Z,17.04
2017-06-30T03:55:57.026Z,17.01
2017-06-30T03:56:25.171Z,17.02
2017-06-30T03:56:53.308Z,17.12
2017-06-30T03:57:21.345Z,17.13
2017-06-30T03:57:49.487Z,17.05
2017-06-30T03:58:17.651Z,17.09
2017-06-30T03:58:45.763Z,17.07
2017-06-30T03:59:13.816Z,17.14
2017-06-30T03:59:41.936Z,17.07
2017-06-30T04:00:10.072Z,17.09
2017-06-30T04:00:39.649Z,17.07
2017-06-30T04:01:07.808Z,17.01
2017-06-30T04:01:35.939Z,17.01
2017-06-30T04:02:04.082Z,17.01
2017-06-30T04:02:32.223Z,17.01
2017-06-30T04:03:00.362Z,16.97
2017-06-30T04:03:28.410Z,17.04
2017-06-30T04:03:56.556Z,17.01
2017-06-30T04:04:24.685Z,17.07
2017-06-30T04:04:52.723Z,16.95
2017-06-30T04:05:20.865Z,16.97
2017-06-30T04:05:49.009Z,16.98
2017-06-30T04:06:17.054Z,16.98
2017-06-30T04:06:45.079Z,17.01
2017-06-30T04:07:13.217Z,17.07
2017-06-30T04:07:41.358Z,17.05
2017-06-30T04:08:09.482Z,17.04
2017-06-30T04:08:37.616Z,17.09
2017-06-30T04:09:05.763Z,17.09
2017-06-30T04:09:33.894Z,17.01
2017-06-30T04:10:02.032Z,17.04
2017-06-30T04:10:30.166Z,17.04
2017-06-30T04:10:58.315Z,17.01
2017-06-30T04:11:26.440Z,16.94
2017-06-30T04:11:54.570Z,17.01
2017-06-30T04:12:22.729Z,16.94
2017-06-30T04:12:50.888Z,16.94
2017-06-30T04:13:18.937Z,16.87
2017-06-30T04:13:47.112Z,16.87
2017-06-30T04:14:15.251Z,16.84
2017-06-30T04:14:43.399Z,16.89
2017-06-30T04:15:11.557Z,16.94
2017-06-30T04:15:39.675Z,16.89
2017-06-30T04:16:07.799Z,16.84
2017-06-30T04:16:35.938Z,16.87
2017-06-30T04:17:04.054Z,16.89
2017-06-30T04:17:32.195Z,16.91
2017-06-30T04:18:00.373Z,16.86
2017-06-30T04:18:28.567Z,16.87
2017-06-30T04:18:56.610Z,16.89
2017-06-30T04:19:24.694Z,16.89
2017-06-30T04:19:52.780Z,16.87
2017-06-30T04:20:20.915Z,16.89
2017-06-30T04:20:48.956Z,16.84
2017-06-30T04:21:17.079Z,16.87
2017-06-30T04:21:45.227Z,16.82
2017-06-30T04:22:13.362Z,16.8
2017-06-30T04:22:41.496Z,16.84
2017-06-30T04:23:09.551Z,16.86
2017-06-30T04:23:52.185Z,16.91
2017-06-30T04:24:20.330Z,16.77
2017-06-30T04:24:48.431Z,16.8
2017-06-30T04:25:16.553Z,16.79
2017-06-30T04:25:44.696Z,16.77
2017-06-30T04:26:12.830Z,16.79
2017-06-30T04:26:40.969Z,16.8
2017-06-30T04:27:09.021Z,16.83
2017-06-30T04:27:37.176Z,16.8
2017-06-30T04:28:05.309Z,16.77
2017-06-30T04:28:33.369Z,16.79
2017-06-30T04:29:01.518Z,16.68
2017-06-30T04:29:29.617Z,16.62
2017-06-30T04:29:57.761Z,16.68
2017-06-30T04:30:25.911Z,16.79
2017-06-30T04:30:54.071Z,16.76
2017-06-30T04:31:22.106Z,16.69
2017-06-30T04:31:50.249Z,16.79
2017-06-30T04:32:18.298Z,16.72
2017-06-30T04:32:46.326Z,16.68
2017-06-30T04:33:14.491Z,16.69
2017-06-30T04:33:42.553Z,16.68
2017-06-30T04:34:10.676Z,16.68
2017-06-30T04:34:38.830Z,16.69
2017-06-30T04:35:06.996Z,16.68
2017-06-30T04:35:35.060Z,16.69
2017-06-30T04:36:03.183Z,16.72
2017-06-30T04:36:31.333Z,16.73
2017-06-30T04:36:59.506Z,16.77
2017-06-30T04:37:27.639Z,16.72
2017-06-30T04:37:55.679Z,16.73
2017-06-30T04:38:23.830Z,16.73
2017-06-30T04:38:51.995Z,16.77
2017-06-30T04:39:20.040Z,16.82
2017-06-30T04:39:48.176Z,16.83
2017-06-30T04:40:16.345Z,16.79
2017-06-30T04:40:44.683Z,16.74
2017-06-30T04:41:12.719Z,16.73
2017-06-30T04:41:40.877Z,16.8
2017-06-30T04:42:09.028Z,16.79
2017-06-30T04:42:37.083Z,16.77
2017-06-30T04:43:05.237Z,16.87
2017-06-30T04:43:33.352Z,16.77
2017-06-30T04:44:01.369Z,16.74
2017-06-30T04:44:29.529Z,16.79
2017-06-30T04:44:57.665Z,16.77
2017-06-30T04:45:25.696Z,16.87
2017-06-30T04:45:53.837Z,16.76
2017-06-30T04:46:21.963Z,16.76
2017-06-30T04:46:50.074Z,16.79
2017-06-30T04:47:18.191Z,16.77
2017-06-30T04:47:46.330Z,16.77
2017-06-30T04:48:14.467Z,16.77
2017-06-30T04:48:42.609Z,16.73
2017-06-30T04:49:10.654Z,16.73
2017-06-30T04:49:39.165Z,16.79
2017-06-30T04:50:07.329Z,16.74
2017-06-30T04:50:35.493Z,16.69
2017-06-30T04:51:03.621Z,16.73
2017-06-30T04:51:31.735Z,16.74
2017-06-30T04:51:59.878Z,16.79
2017-06-30T04:52:27.821Z,16.72
2017-06-30T04:52:55.947Z,16.76
2017-06-30T04:53:23.978Z,16.8
2017-06-30T04:53:52.095Z,16.72
2017-06-30T04:54:20.248Z,16.86
2017-06-30T04:54:48.396Z,16.82
2017-06-30T04:55:16.514Z,16.73
2017-06-30T04:55:44.924Z,16.74
2017-06-30T04:56:13.041Z,16.8
2017-06-30T04:56:41.173Z,16.72
2017-06-30T04:57:09.306Z,16.77
2017-06-30T04:57:37.486Z,16.74
2017-06-30T04:58:05.627Z,16.77
2017-06-30T04:58:33.762Z,16.74
2017-06-30T04:59:01.893Z,16.68
2017-06-30T04:59:30.042Z,16.74
2017-06-30T04:59:57.914Z,16.69
2017-06-30T05:00:25.961Z,16.72
2017-06-30T05:00:54.095Z,16.72
2017-06-30T05:01:22.130Z,16.72
2017-06-30T05:01:50.275Z,16.61
2017-06-30T05:02:18.296Z,16.62
2017-06-30T05:02:46.370Z,16.62
2017-06-30T05:03:14.499Z,16.64
2017-06-30T05:03:42.640Z,16.58
2017-06-30T05:04:10.673Z,16.59
2017-06-30T05:04:38.728Z,16.58
2017-06-30T05:05:06.881Z,16.64
2017-06-30T05:05:35.023Z,16.64
2017-06-30T05:06:03.139Z,16.59
2017-06-30T05:06:31.285Z,16.57
2017-06-30T05:06:59.313Z,16.58
2017-06-30T05:07:27.343Z,16.57
2017-06-30T05:07:55.504Z,16.58
2017-06-30T05:08:23.644Z,16.57
2017-06-30T05:08:51.752Z,16.47
2017-06-30T05:09:19.882Z,16.43
2017-06-30T05:09:48.028Z,16.47
2017-06-30T05:10:16.005Z,16.49
2017-06-30T05:10:44.139Z,16.44
2017-06-30T05:11:12.271Z,16.44
2017-06-30T05:11:40.350Z,16.41
2017-06-30T05:12:08.412Z,16.32
2017-06-30T05:12:36.555Z,16.31
2017-06-30T05:13:04.601Z,16.31
2017-06-30T05:13:32.761Z,16.39
2017-06-30T05:14:00.712Z,16.31
2017-06-30T05:14:28.840Z,16.29
2017-06-30T05:14:56.887Z,16.32
2017-06-30T05:15:25.020Z,16.26
2017-06-30T05:15:53.168Z,16.32
2017-06-30T05:16:21.312Z,16.31
2017-06-30T05:16:49.319Z,16.32
2017-06-30T05:17:17.455Z,16.28
2017-06-30T05:17:45.609Z,16.18
2017-06-30T05:18:13.784Z,16.31
2017-06-30T05:18:41.950Z,16.18
2017-06-30T05:19:10.102Z,16.22
2017-06-30T05:19:38.217Z,16.28
2017-06-30T05:20:06.352Z,16.26
2017-06-30T05:20:34.515Z,16.24
2017-06-30T05:21:02.629Z,16.25
2017-06-30T05:21:30.767Z,16.24
2017-06-30T05:21:58.889Z,16.25
2017-06-30T05:22:27.020Z,16.31
2017-06-30T05:22:55.151Z,16.24
2017-06-30T05:23:23.251Z,16.22
2017-06-30T05:23:51.290Z,16.28
2017-06-30T05:24:19.445Z,16.16
2017-06-30T05:24:47.612Z,16.21
2017-06-30T05:25:15.781Z,16.25
2017-06-30T05:25:43.817Z,16.25
2017-06-30T05:26:11.944Z,16.18
2017-06-30T05:26:40.078Z,16.28
2017-06-30T05:27:08.209Z,16.28
2017-06-30T05:27:36.334Z,16.21
2017-06-30T05:28:04.460Z,16.21
2017-06-30T05:28:32.608Z,16.22
2017-06-30T05:29:00.739Z,16.25
2017-06-30T05:29:28.775Z,16.18
2017-06-30T05:29:56.930Z,16.29
2017-06-30T05:30:39.460Z,16.25
2017-06-30T05:31:07.581Z,16.25
2017-06-30T05:31:35.616Z,16.25
2017-06-30T05:32:03.730Z,16.18
2017-06-30T05:32:31.880Z,16.17
2017-06-30T05:33:00.020Z,16.25
2017-06-30T05:33:28.174Z,16.22
2017-06-30T05:33:56.320Z,16.21
2017-06-30T05:34:24.461Z,16.16
2017-06-30T05:34:52.598Z,16.21
2017-06-30T05:35:20.730Z,16.26
2017-06-30T05:35:48.890Z,16.28
2017-06-30T05:36:17.251Z,16.22
2017-06-30T05:36:45.388Z,16.25
2017-06-30T05:37:13.372Z,16.25
2017-06-30T05:37:41.524Z,16.22
2017-06-30T05:38:09.658Z,16.28
2017-06-30T05:38:37.772Z,16.28
2017-06-30T05:39:06.011Z,16.26
2017-06-30T05:39:34.160Z,16.28
2017-06-30T05:40:02.208Z,16.28
2017-06-30T05:40:30.355Z,16.31
2017-06-30T05:40:58.513Z,16.22
2017-06-30T05:41:26.665Z,16.31
2017-06-30T05:41:54.838Z,16.29
2017-06-30T05:42:22.973Z,16.28
2017-06-30T05:42:51.115Z,16.26
2017-06-30T05:43:19.251Z,16.28
2017-06-30T05:43:47.368Z,16.32
2017-06-30T05:44:15.487Z,16.28
2017-06-30T05:44:43.681Z,16.26
2017-06-30T05:45:11.806Z,16.34
2017-06-30T05:45:39.931Z,16.32
2017-06-30T05:46:07.993Z,16.28
2017-06-30T05:46:36.148Z,16.29
2017-06-30T05:47:04.285Z,16.32
2017-06-30T05:47:32.458Z,16.31
2017-06-30T05:48:00.588Z,16.29
2017-06-30T05:48:28.727Z,16.32
2017-06-30T05:48:56.859Z,16.29
2017-06-30T05:49:24.986Z,16.31
2017-06-30T05:49:53.156Z,16.26
2017-06-30T05:50:21.302Z,16.18
2017-06-30T05:50:49.324Z,16.26
2017-06-30T05:51:17.446Z,16.21
2017-06-30T05:51:45.599Z,16.24
2017-06-30T05:52:13.748Z,16.25
2017-06-30T05:52:41.878Z,16.26
2017-06-30T05:53:09.933Z,16.22
2017-06-30T05:53:38.049Z,16.12
2017-06-30T05:54:06.200Z,16.08
2017-06-30T05:54:34.347Z,16.13
2017-06-30T05:55:02.507Z,15.99
2017-06-30T05:55:30.635Z,16
2017-06-30T05:55:58.777Z,15.99
2017-06-30T05:56:26.912Z,15.9
2017-06-30T05:56:55.015Z,15.91
2017-06-30T05:57:23.158Z,15.83
2017-06-30T05:57:51.194Z,15.73
2017-06-30T05:58:19.320Z,15.67
2017-06-30T05:58:47.454Z,15.7
2017-06-30T05:59:15.473Z,15.75
2017-06-30T05:59:43.602Z,15.7
2017-06-30T06:00:11.768Z,15.63
2017-06-30T06:00:39.933Z,15.65
2017-06-30T06:01:07.945Z,15.62
2017-06-30T06:01:36.066Z,15.63
2017-06-30T06:02:04.086Z,15.63
2017-06-30T06:02:32.224Z,15.66
2017-06-30T06:03:00.359Z,15.67
2017-06-30T06:03:28.407Z,15.67